Airport View

Enter AWOS ICAO identifier for current METAR.

ex. KFNL

KPIT 221151Z 06007KT 10SM BKN150 08/M04 A3034 RMK AO2 SLP286 T00781044 10094 20072 53010

22 Apr 2018 12:13

Phone: 412-472-0145

Other Area AWOS: 42PN - KAGC - KBVI - KBTP

TAF KPIT 221127Z 2212/2318 08010KT P6SM SCT250